Wayne, PA (19087)

8:01 PM EDT on April 21, 2015 (GMT -0400)
St Davids Golf Club | | Change Station
CLOSE
Current Station
Personal Weather Station
Location: Wayne, PA
Elevation: 500 ft
Nearby Weather Stations

Elev 500 ft 40.06 °N, 75.38 °W | Updated 1 minute ago

Partly Cloudy
Partly Cloudy
58.6 °F
Feels Like 58.6 °F
N
3.0
Wind Variable Wind from West
Gusts 6.0 mph

Today
High -- | Low -- °F
--% Chance of Precip.
Yesterday
High -- | Low -- °F
Precip. -- in
6:15 AM 7:46 PM
Waxing Crescent, 13% visible
Pressure 29.76 in
Visibility 10.0 miles
Clouds Clear
Dew Point 30 °F
Humidity 34%
Rainfall 0.44 in
Snow Depth Not available.
UV 0.0 out of 12
Pollen 9.30 out of 12
Air Quality Not available.
Flu Activity Sporadic
METAR KLOM 212355Z AUTO 00000KT 10SM CLR 15/00 A2976 RMK AO1

More Conditions Fewer Conditions

Pressure 29.76 in
Visibility 10.0 miles
Clouds Clear
Dew Point 30 °F
Humidity 34%
Rainfall 0.44 in
Snow Depth Not available.
UV 0.0 out of 12
Pollen 9.30 out of 12
Air Quality Not available.
Flu Activity Sporadic
METAR KLOM 212355Z AUTO 00000KT 10SM CLR 15/00 A2976 RMK AO1

More Conditions Fewer Conditions

10-Day Weather Forecast

Almanac

Astronomy

Apr. 21, 2015 Rise Set
Actual Time
Civil Twilight
Nautical Twilight
Astronomical Twilight
Moon
Length of Visible Light
Length of Day
Tomorrow will be .
, % of the Moon is Illuminated

Today's Extremes

State Highs State Lows

Community

WunderPhotos

Upload Photos

1,815,586 photos uploaded!

WunderBlogs® & News

Nearby

Air Quality

  Air Quality AQ Index Pollutant
Not available.

Snow Depth

Station Depth Elevation

Earthquake Activity

City Distance Mag. Time & Date
Minimum magnitude displayed is 2.5.

Coastal Water Temperatures

Place Temperature

Stations

Nearby Weather Stations

Station Location Temp. Windchill Dew Point Humidity Wind Precip. Elev Updated Type